Time;durP1;ratioP1;P1;durP2;ratioP2;P2;SDS_P1;SDS_P2;PMS_P1;PMS_P2;Temp;Humidity;BMP_temperature;BMP_pressure;BME280_temperature;BME280_humidity;BME280_pressure;Samples;Min_cycle;Max_cycle;Signal;HPM_P1;HPM_P2
2022/05/13 00:01:20;;;;;;;13.30;9.65;;;13.90;99.90;;;;;;5056876;28;20427;-76
2022/05/13 00:03:47;;;;;;;12.57;9.68;;;13.90;99.90;;;;;;5038635;28;20056;-77
2022/05/13 00:06:15;;;;;;;16.58;10.07;;;13.90;99.90;;;;;;5056583;28;20047;-76
2022/05/13 00:08:42;;;;;;;15.32;10.10;;;13.90;99.90;;;;;;5038568;28;20044;-76
2022/05/13 00:11:12;;;;;;;13.43;10.10;;;13.80;99.90;;;;;;5056241;28;20041;-77
2022/05/13 00:13:39;;;;;;;17.05;11.50;;;13.80;99.90;;;;;;5055674;28;20068;-77
2022/05/13 00:16:07;;;;;;;13.15;10.27;;;13.80;99.90;;;;;;5056264;28;20049;-76
2022/05/13 00:18:36;;;;;;;12.73;9.90;;;13.80;99.90;;;;;;5056158;28;20041;-77
2022/05/13 00:21:04;;;;;;;12.48;10.05;;;13.80;99.90;;;;;;5055729;28;20506;-75
2022/05/13 00:23:32;;;;;;;14.20;9.68;;;13.70;99.90;;;;;;5055372;28;20056;-76
2022/05/13 00:26:00;;;;;;;13.05;9.60;;;13.70;99.90;;;;;;5055966;28;20041;-76
2022/05/13 00:28:29;;;;;;;13.07;9.27;;;13.70;99.90;;;;;;5056567;28;20045;-77
2022/05/13 00:30:59;;;;;;;11.23;8.85;;;13.70;99.90;;;;;;5056319;28;20044;-76
2022/05/13 00:33:27;;;;;;;12.65;9.43;;;13.60;99.90;;;;;;5035772;28;20140;-77
2022/05/13 00:35:54;;;;;;;13.00;9.23;;;13.50;99.90;;;;;;5035826;28;20493;-77
2022/05/13 00:38:21;;;;;;;12.73;9.82;;;13.40;99.90;;;;;;5036076;28;20045;-76
2022/05/13 00:40:49;;;;;;;13.85;10.32;;;13.30;99.90;;;;;;5035781;28;20386;-77
2022/05/13 00:43:49;;;;;;;12.90;9.85;;;13.30;99.90;;;;;;5042294;28;20170;-75
2022/05/13 00:46:17;;;;;;;14.98;10.73;;;13.30;99.90;;;;;;5054448;28;20044;-76
2022/05/13 00:48:45;;;;;;;13.13;9.68;;;13.20;99.90;;;;;;5037602;28;20048;-75
2022/05/13 00:51:18;;;;;;;13.15;10.07;;;13.20;99.90;;;;;;5037221;28;20044;-76
2022/05/13 00:53:46;;;;;;;13.02;9.35;;;13.20;99.90;;;;;;5055517;28;20047;-76
2022/05/13 00:56:13;;;;;;;13.38;10.00;;;13.20;99.90;;;;;;5055324;28;20053;-76
2022/05/13 00:58:44;;;;;;;15.10;9.40;;;13.30;99.90;;;;;;5055130;28;20041;-76
2022/05/13 01:01:13;;;;;;;11.60;9.68;;;13.40;99.90;;;;;;5055457;28;20056;-76
2022/05/13 01:03:41;;;;;;;14.25;9.57;;;13.30;99.90;;;;;;5053628;28;20067;-77
2022/05/13 01:06:14;;;;;;;18.20;15.00;;;13.30;99.90;;;;;;5055470;28;20056;-76
2022/05/13 01:08:41;;;;;;;15.27;9.63;;;13.30;99.90;;;;;;5037080;28;20047;-75
2022/05/13 01:11:12;;;;;;;11.95;9.75;;;13.30;99.90;;;;;;5054635;28;20044;-76
2022/05/13 01:13:44;;;;;;;10.85;8.88;;;13.20;99.90;;;;;;5054691;28;20077;-76
2022/05/13 01:16:13;;;;;;;13.50;9.65;;;13.20;99.90;;;;;;5054705;28;20037;-77
2022/05/13 01:18:42;;;;;;;16.88;9.52;;;13.20;99.90;;;;;;5034844;28;20045;-76
2022/05/13 01:21:15;;;;;;;13.18;9.18;;;13.20;99.90;;;;;;5035100;28;20481;-76
2022/05/13 01:23:46;;;;;;;12.25;9.20;;;13.20;99.90;;;;;;5037339;28;20071;-76
2022/05/13 01:26:16;;;;;;;13.05;9.20;;;13.20;99.90;;;;;;5062982;28;20044;-76
2022/05/13 01:28:47;;;;;;;12.18;9.25;;;13.20;99.90;;;;;;5036881;28;20047;-78
2022/05/13 01:31:23;;;;;;;13.60;9.00;;;13.10;99.90;;;;;;5064379;28;20052;-78
2022/05/13 01:33:50;;;;;;;14.63;9.25;;;13.00;99.90;;;;;;5062621;28;20049;-79
2022/05/13 01:36:18;;;;;;;15.80;8.80;;;12.90;99.90;;;;;;5037563;28;20045;-78
2022/05/13 01:38:47;;;;;;;15.15;10.05;;;12.90;99.90;;;;;;5055511;28;20056;-79
2022/05/13 01:41:16;;;;;;;11.68;9.60;;;12.90;99.90;;;;;;5055154;28;20041;-75
2022/05/13 01:43:46;;;;;;;12.32;9.00;;;12.90;99.90;;;;;;5035790;28;20084;-76
2022/05/13 01:46:15;;;;;;;12.73;10.07;;;12.90;99.90;;;;;;5036585;28;20055;-77
2022/05/13 01:48:43;;;;;;;13.40;9.85;;;12.90;99.90;;;;;;5054106;28;20072;-76
2022/05/13 01:51:11;;;;;;;17.10;10.30;;;12.80;99.90;;;;;;5037286;28;20428;-76
2022/05/13 01:53:38;;;;;;;15.45;9.65;;;12.90;99.90;;;;;;5036378;28;20492;-76
2022/05/13 01:56:08;;;;;;;12.90;10.07;;;12.80;99.90;;;;;;5036114;28;20408;-75
2022/05/13 01:58:36;;;;;;;13.07;10.95;;;12.80;99.90;;;;;;5052541;28;20049;-77
2022/05/13 02:01:06;;;;;;;14.93;10.60;;;12.80;99.90;;;;;;5035920;28;20158;-77
2022/05/13 02:03:46;;;;;;;13.07;9.60;;;12.80;99.90;;;;;;5057538;28;20041;-76
2022/05/13 02:06:16;;;;;;;12.52;9.35;;;12.70;99.90;;;;;;5057966;28;20041;-76
2022/05/13 02:08:44;;;;;;;11.75;8.82;;;12.70;99.90;;;;;;5052997;28;20443;-75
2022/05/13 02:11:13;;;;;;;12.02;9.68;;;12.70;99.90;;;;;;5053837;28;20044;-75
2022/05/13 02:13:41;;;;;;;13.68;9.25;;;12.70;99.90;;;;;;5053668;28;20116;-76
2022/05/13 02:16:10;;;;;;;11.45;9.73;;;12.70;99.90;;;;;;5053495;28;20064;-76
2022/05/13 02:18:38;;;;;;;16.25;9.73;;;12.70;99.90;;;;;;5053540;28;20378;-75
2022/05/13 02:21:08;;;;;;;15.32;10.00;;;12.60;99.90;;;;;;5053585;28;20052;-77
2022/05/13 02:23:35;;;;;;;12.25;9.63;;;12.60;99.90;;;;;;5053019;28;20428;-75
2022/05/13 02:26:05;;;;;;;13.65;9.35;;;12.50;99.90;;;;;;5053440;28;20499;-76
2022/05/13 02:28:35;;;;;;;13.15;9.43;;;12.50;99.90;;;;;;5053794;28;20116;-76
2022/05/13 02:31:03;;;;;;;12.77;10.13;;;12.50;99.90;;;;;;5053273;28;20049;-76
2022/05/13 02:33:31;;;;;;;14.75;10.55;;;12.40;99.90;;;;;;5035193;28;20049;-76
2022/05/13 02:36:00;;;;;;;15.00;10.05;;;12.50;99.90;;;;;;5036132;28;20099;-76
2022/05/13 02:38:28;;;;;;;12.80;9.63;;;12.40;99.90;;;;;;5053825;28;20119;-76
2022/05/13 02:41:14;;;;;;;13.48;10.18;;;12.40;99.90;;;;;;5054465;28;20037;-75
2022/05/13 02:43:44;;;;;;;15.55;10.45;;;12.40;99.90;;;;;;5053664;28;20037;-75
2022/05/13 02:46:12;;;;;;;12.55;9.18;;;12.40;99.90;;;;;;5062572;28;20110;-77
2022/05/13 02:48:40;;;;;;;14.73;9.48;;;12.40;99.90;;;;;;5035244;28;20091;-76
2022/05/13 02:51:08;;;;;;;13.75;9.90;;;12.30;99.90;;;;;;5061777;28;20452;-76
2022/05/13 02:53:36;;;;;;;14.02;10.27;;;12.30;99.90;;;;;;5061636;28;20368;-77
2022/05/13 02:56:04;;;;;;;13.93;10.10;;;12.30;99.90;;;;;;5045264;28;20436;-77
2022/05/13 02:58:32;;;;;;;15.70;11.02;;;12.30;99.90;;;;;;5052920;28;20044;-76
2022/05/13 03:01:01;;;;;;;16.65;10.02;;;12.20;99.90;;;;;;5068710;28;20029;-76
2022/05/13 03:03:30;;;;;;;12.45;9.90;;;12.20;99.90;;;;;;5067863;28;20032;-77
2022/05/13 03:05:57;;;;;;;15.10;9.85;;;12.20;99.90;;;;;;5069340;28;20037;-77
2022/05/13 03:08:25;;;;;;;14.68;10.15;;;12.20;99.90;;;;;;5042037;28;20051;-77
2022/05/13 03:10:55;;;;;;;12.95;10.38;;;12.10;99.90;;;;;;5064082;28;20037;-77
2022/05/13 03:13:23;;;;;;;12.18;9.60;;;12.10;99.90;;;;;;5067974;28;20041;-75
2022/05/13 03:15:50;;;;;;;12.88;9.68;;;12.10;99.90;;;;;;5071760;28;20058;-77
2022/05/13 03:18:19;;;;;;;12.02;9.70;;;12.00;99.90;;;;;;5058943;28;20056;-75
2022/05/13 03:20:47;;;;;;;13.07;10.27;;;12.00;99.90;;;;;;5044181;28;20041;-76
2022/05/13 03:23:15;;;;;;;10.65;9.55;;;11.90;99.90;;;;;;5064676;28;20056;-75
2022/05/13 03:25:42;;;;;;;13.48;10.90;;;12.10;99.90;;;;;;5064544;28;20041;-76
2022/05/13 03:28:10;;;;;;;13.48;10.73;;;12.10;99.90;;;;;;5063653;28;20045;-76
2022/05/13 03:30:38;;;;;;;12.77;10.63;;;12.10;99.90;;;;;;5048821;28;20060;-76
2022/05/13 03:33:06;;;;;;;16.02;10.60;;;12.10;99.90;;;;;;5066925;28;20036;-76
2022/05/13 03:35:35;;;;;;;12.57;10.63;;;12.10;99.90;;;;;;5076412;28;20072;-76
2022/05/13 03:38:03;;;;;;;15.02;10.27;;;12.10;99.90;;;;;;5077030;28;20472;-76
2022/05/13 03:40:30;;;;;;;14.63;9.82;;;12.10;99.90;;;;;;5048055;28;20538;-76
2022/05/13 03:42:58;;;;;;;13.77;9.88;;;12.10;99.90;;;;;;5072187;28;20041;-78
2022/05/13 03:45:27;;;;;;;16.42;10.68;;;12.20;99.90;;;;;;5076661;28;20543;-75
2022/05/13 03:47:54;;;;;;;13.77;10.63;;;12.30;99.90;;;;;;5058644;28;20063;-76
2022/05/13 03:50:22;;;;;;;12.80;11.07;;;12.30;99.90;;;;;;5064497;28;20462;-77
2022/05/13 03:52:51;;;;;;;12.90;10.43;;;12.50;99.90;;;;;;5070552;28;20526;-76
2022/05/13 03:55:19;;;;;;;13.75;10.02;;;12.90;99.90;;;;;;5076696;28;20037;-76
2022/05/13 03:57:46;;;;;;;11.93;9.75;;;13.50;99.90;;;;;;5077172;28;20540;-77
2022/05/13 04:00:15;;;;;;;17.15;9.23;;;14.10;99.90;;;;;;5048740;28;20051;-77
2022/05/13 04:02:43;;;;;;;13.23;9.77;;;14.70;99.90;;;;;;5054782;28;20040;-76
2022/05/13 04:10:42;;;;;;;11.65;7.45;;;15.90;1.00;;;;;;5057792;28;19936;-77
2022/05/13 04:16:07;;;;;;;10.55;6.82;;;17.00;99.90;;;;;;5053222;28;20043;-78
2022/05/13 04:18:37;;;;;;;12.15;6.78;;;17.60;1.00;;;;;;5062978;28;20457;-76
2022/05/13 04:21:06;;;;;;;11.00;6.95;;;17.80;99.90;;;;;;5065982;28;20060;-76
2022/05/13 04:23:37;;;;;;;9.40;6.60;;;18.30;99.90;;;;;;5036868;28;20080;-78
2022/05/13 04:26:05;;;;;;;8.75;6.55;;;18.50;1.00;;;;;;5035056;28;20045;-77
2022/05/13 04:28:34;;;;;;;11.10;6.82;;;18.80;91.50;;;;;;5044072;28;20067;-77
2022/05/13 04:31:01;;;;;;;8.27;6.68;;;18.90;1.00;;;;;;5067574;28;20044;-76
2022/05/13 04:33:29;;;;;;;12.90;7.40;;;19.30;1.00;;;;;;5058293;28;20488;-76
2022/05/13 04:35:57;;;;;;;10.95;6.80;;;19.40;1.00;;;;;;5036635;28;20137;-76
2022/05/13 04:38:25;;;;;;;14.13;8.82;;;19.80;99.90;;;;;;5056425;28;20047;-76
2022/05/13 04:40:54;;;;;;;14.50;8.73;;;20.30;7.90;;;;;;5069800;28;20037;-76
2022/05/13 04:43:20;;;;;;;17.45;8.63;;;20.90;1.00;;;;;;5056181;28;20068;-77
2022/05/13 04:45:48;;;;;;;12.13;7.88;;;20.80;99.90;;;;;;5054979;28;20447;-75
2022/05/13 04:48:19;;;;;;;15.02;7.57;;;20.30;1.00;;;;;;5054663;28;20561;-77
2022/05/13 04:50:51;;;;;;;11.18;7.95;;;19.80;1.00;;;;;;5054554;28;20117;-76
2022/05/13 04:53:21;;;;;;;9.70;6.97;;;19.10;1.00;;;;;;5054260;28;20049;-76
2022/05/13 04:55:50;;;;;;;11.40;7.43;;;18.40;60.10;;;;;;5055267;28;20037;-75
2022/05/13 04:58:19;;;;;;;10.82;7.78;;;18.00;1.00;;;;;;5055501;28;20525;-76
2022/05/13 05:00:48;;;;;;;9.05;7.25;;;17.80;1.00;;;;;;5065175;28;20048;-77
2022/05/13 05:03:18;;;;;;;15.38;7.40;;;17.60;1.00;;;;;;5064158;28;20097;-77
2022/05/13 05:05:45;;;;;;;12.43;7.75;;;17.70;1.00;;;;;;5066951;28;20424;-77
2022/05/13 05:08:13;;;;;;;11.93;7.65;;;17.80;1.00;;;;;;5064437;28;20052;-77
2022/05/13 05:10:41;;;;;;;13.48;8.10;;;18.00;99.90;;;;;;5041512;28;20131;-78
2022/05/13 05:13:10;;;;;;;16.90;7.35;;;18.70;99.90;;;;;;5053691;28;20040;-77
2022/05/13 05:15:39;;;;;;;15.43;7.40;;;19.70;99.90;;;;;;5061268;28;20040;-77
2022/05/13 05:18:08;;;;;;;28.25;10.93;;;20.60;1.00;;;;;;5065713;28;20115;-77
2022/05/13 05:20:36;;;;;;;18.23;7.60;;;21.30;1.00;;;;;;5076327;28;20086;-77
2022/05/13 05:23:05;;;;;;;13.20;7.20;;;21.40;99.90;;;;;;5076219;28;20080;-77
2022/05/13 05:25:33;;;;;;;16.58;8.20;;;21.50;1.00;;;;;;5073634;28;20067;-76
2022/05/13 05:28:01;;;;;;;12.10;8.25;;;21.70;1.00;;;;;;5054395;28;20041;-77
2022/05/13 05:30:28;;;;;;;15.30;8.73;;;21.70;99.90;;;;;;5062862;28;20379;-77
2022/05/13 05:32:57;;;;;;;14.55;10.70;;;21.90;99.90;;;;;;5052875;28;20045;-77
2022/05/13 05:35:25;;;;;;;17.77;11.50;;;22.10;1.00;;;;;;5069243;28;20052;-76
2022/05/13 05:37:53;;;;;;;15.18;11.75;;;22.20;1.00;;;;;;5067914;28;20044;-77
2022/05/13 05:40:21;;;;;;;18.45;12.93;;;22.10;1.00;;;;;;5051156;28;20048;-77
2022/05/13 05:42:50;;;;;;;22.00;13.98;;;22.00;99.90;;;;;;5061450;28;20036;-77
2022/05/13 05:45:20;;;;;;;21.88;14.35;;;21.80;1.00;;;;;;5049764;28;20446;-76
2022/05/13 05:47:48;;;;;;;27.52;15.35;;;21.60;1.00;;;;;;5059479;28;20451;-76
2022/05/13 05:50:20;;;;;;;22.23;14.70;;;21.80;1.00;;;;;;5055671;28;20109;-77
2022/05/13 05:52:48;;;;;;;20.67;13.85;;;22.00;1.00;;;;;;5060136;28;20037;-77
2022/05/13 05:57:59;;;;;;;22.70;15.65;;;21.90;1.00;;;;;;5031785;28;20057;-76
2022/05/13 06:00:27;;;;;;;28.55;15.80;;;21.60;1.00;;;;;;5054636;28;20037;-75
2022/05/13 06:02:58;;;;;;;21.23;13.55;;;21.90;1.00;;;;;;5054193;28;20045;-76
2022/05/13 06:05:28;;;;;;;15.27;9.90;;;22.20;99.90;;;;;;5056888;28;20078;-76
2022/05/13 06:07:57;;;;;;;35.58;10.07;;;22.10;1.00;;;;;;5070117;28;20066;-75
2022/05/13 06:10:26;;;;;;;17.08;9.90;;;22.20;1.00;;;;;;5065557;28;20488;-76
2022/05/13 06:12:53;;;;;;;20.13;9.27;;;22.00;1.00;;;;;;5073457;28;20397;-76
2022/05/13 06:15:21;;;;;;;16.38;10.25;;;22.20;1.00;;;;;;5065314;28;20108;-76
2022/05/13 06:17:51;;;;;;;24.98;13.10;;;22.60;1.00;;;;;;5066910;28;20063;-76
2022/05/13 06:20:20;;;;;;;18.20;9.80;;;22.80;1.00;;;;;;5058867;28;20047;-75
2022/05/13 06:22:49;;;;;;;28.85;12.85;;;23.00;1.00;;;;;;5064708;28;20129;-76
2022/05/13 06:25:19;;;;;;;22.70;12.15;;;23.30;1.00;;;;;;5073650;28;20056;-76
2022/05/13 06:27:49;;;;;;;17.90;9.65;;;23.60;16.20;;;;;;5073361;28;20466;-75
2022/05/13 06:30:23;;;;;;;15.20;9.77;;;23.50;57.90;;;;;;5073405;28;20468;-77
2022/05/13 06:32:51;;;;;;;18.92;10.43;;;23.30;56.40;;;;;;5073671;28;20491;-76
2022/05/13 06:35:19;;;;;;;18.90;10.13;;;23.30;81.10;;;;;;5074067;28;20047;-77
2022/05/13 06:37:47;;;;;;;15.35;8.93;;;23.30;69.00;;;;;;5055552;28;20049;-77
2022/05/13 06:40:16;;;;;;;14.73;9.02;;;23.30;73.30;;;;;;5055540;28;20165;-76
2022/05/13 06:42:44;;;;;;;19.58;8.82;;;23.40;95.00;;;;;;5072813;28;20041;-76
2022/05/13 06:45:13;;;;;;;13.45;8.80;;;23.50;94.50;;;;;;5055360;28;20515;-74
2022/05/13 06:47:41;;;;;;;20.30;9.95;;;23.30;99.90;;;;;;5072999;28;20049;-76
2022/05/13 06:50:10;;;;;;;23.60;10.10;;;23.20;99.90;;;;;;5055043;28;20045;-76
2022/05/13 06:52:38;;;;;;;18.20;11.07;;;23.30;99.90;;;;;;5072861;28;20102;-75
2022/05/13 06:55:07;;;;;;;17.65;10.20;;;23.50;99.90;;;;;;5073311;28;20079;-76
2022/05/13 06:57:37;;;;;;;18.33;9.85;;;23.80;99.90;;;;;;5069239;28;20044;-76
2022/05/13 07:00:06;;;;;;;20.30;9.85;;;24.20;99.90;;;;;;5066033;28;20071;-76
2022/05/13 07:02:33;;;;;;;15.68;9.63;;;24.40;99.90;;;;;;5072684;28;20056;-76
2022/05/13 07:05:01;;;;;;;15.00;9.23;;;24.40;99.90;;;;;;5055797;28;20507;-76
2022/05/13 07:07:30;;;;;;;17.25;9.00;;;24.50;99.90;;;;;;5073332;28;20045;-76
2022/05/13 07:09:58;;;;;;;15.60;8.48;;;24.40;99.90;;;;;;5057157;28;20053;-76
2022/05/13 07:12:25;;;;;;;18.20;8.65;;;24.30;99.90;;;;;;5079323;28;20040;-75
2022/05/13 07:14:54;;;;;;;17.13;9.90;;;24.30;99.90;;;;;;5059197;28;20048;-75
2022/05/13 07:17:23;;;;;;;23.58;10.65;;;24.60;99.90;;;;;;5079596;28;20047;-75
2022/05/13 07:19:50;;;;;;;17.42;10.02;;;24.90;99.90;;;;;;5064453;28;20120;-76
2022/05/13 07:22:21;;;;;;;14.07;8.40;;;25.20;99.90;;;;;;5052152;28;20049;-76
2022/05/13 07:24:48;;;;;;;13.15;7.45;;;25.50;99.90;;;;;;5035612;28;20141;-76
2022/05/13 07:27:16;;;;;;;20.67;9.68;;;25.40;99.90;;;;;;5037213;28;20048;-76
2022/05/13 07:29:44;;;;;;;14.68;8.45;;;25.70;99.90;;;;;;5035703;28;20045;-76
2022/05/13 07:32:13;;;;;;;13.95;8.30;;;25.90;99.90;;;;;;5033644;28;20394;-76
2022/05/13 07:34:40;;;;;;;16.15;8.80;;;25.90;99.90;;;;;;5033949;28;20071;-76
2022/05/13 07:37:08;;;;;;;13.88;8.10;;;25.80;99.90;;;;;;5033863;28;20128;-76
2022/05/13 07:42:20;;;;;;;12.85;8.15;;;25.70;99.90;;;;;;5035993;28;20073;-75
2022/05/13 07:44:48;;;;;;;20.30;10.20;;;25.70;99.90;;;;;;5037216;28;20125;-76
2022/05/13 07:47:19;;;;;;;18.70;7.97;;;25.60;99.90;;;;;;5037517;28;20053;-76
2022/05/13 07:49:47;;;;;;;13.82;8.60;;;25.60;99.90;;;;;;5037703;28;20560;-75
2022/05/13 07:52:15;;;;;;;12.73;8.32;;;25.70;99.90;;;;;;5037517;28;20036;-76
2022/05/13 07:54:42;;;;;;;21.15;10.35;;;26.00;99.90;;;;;;5037276;28;20103;-76
2022/05/13 07:57:10;;;;;;;12.25;8.23;;;26.30;99.90;;;;;;5036979;28;20052;-76
2022/05/13 08:02:21;;;;;;;16.05;9.57;;;26.70;99.90;;;;;;5034426;28;20048;-76
2022/05/13 08:04:49;;;;;;;18.83;9.02;;;26.90;99.90;;;;;;5036482;28;20116;-75
2022/05/13 08:07:17;;;;;;;17.80;9.40;;;27.10;99.90;;;;;;5036308;28;20049;-77
2022/05/13 08:09:44;;;;;;;13.63;6.55;;;27.20;99.90;;;;;;5036320;28;20410;-77
2022/05/13 08:12:12;;;;;;;10.75;6.65;;;27.20;99.90;;;;;;5034407;28;20049;-75
2022/05/13 08:14:40;;;;;;;15.40;8.10;;;27.30;99.90;;;;;;5036374;28;20034;-76
2022/05/13 08:17:07;;;;;;;11.35;7.25;;;27.20;99.90;;;;;;5036215;28;20045;-76
2022/05/13 08:19:36;;;;;;;9.27;6.72;;;27.20;99.90;;;;;;5036116;28;20112;-75
2022/05/13 08:22:05;;;;;;;14.75;7.47;;;27.10;99.90;;;;;;5050552;28;20398;-75
2022/05/13 08:24:32;;;;;;;8.93;6.28;;;26.90;99.90;;;;;;5075501;28;20127;-76
2022/05/13 08:27:00;;;;;;;15.80;9.10;;;26.90;99.90;;;;;;5077343;28;20096;-75
2022/05/13 08:29:28;;;;;;;19.95;8.23;;;26.90;99.90;;;;;;5076403;28;20119;-79
2022/05/13 08:31:55;;;;;;;17.73;8.60;;;26.90;99.90;;;;;;5078140;28;20471;-78
2022/05/13 08:34:23;;;;;;;11.35;6.97;;;26.80;99.90;;;;;;5077258;28;20053;-77
2022/05/13 08:36:52;;;;;;;11.70;6.03;;;26.70;99.90;;;;;;5076969;28;20488;-77
2022/05/13 08:39:19;;;;;;;13.48;6.55;;;26.70;99.90;;;;;;5077757;28;20041;-78
2022/05/13 08:42:01;;;;;;;14.50;7.57;;;26.70;99.90;;;;;;5076270;28;20047;-76
2022/05/13 08:44:29;;;;;;;16.30;7.80;;;26.90;99.90;;;;;;5075753;28;20482;-76
2022/05/13 08:47:03;;;;;;;12.57;7.93;;;26.90;99.90;;;;;;5076285;28;20044;-78
2022/05/13 08:49:37;;;;;;;12.20;7.53;;;27.00;99.90;;;;;;5077187;28;20045;-78
2022/05/13 08:55:06;;;;;;;12.00;7.05;;;27.20;99.90;;;;;;5075874;28;20075;-75
2022/05/13 08:57:39;;;;;;;12.48;9.88;;;27.50;99.90;;;;;;5075195;28;20051;-76
2022/05/13 09:00:13;;;;;;;16.30;10.98;;;27.70;99.90;;;;;;5057416;28;20048;-76
2022/05/13 09:02:44;;;;;;;15.25;9.45;;;27.70;99.90;;;;;;5075039;28;20041;-76
2022/05/13 09:05:22;;;;;;;13.98;7.82;;;27.80;99.90;;;;;;5075227;28;20071;-76
2022/05/13 09:07:52;;;;;;;13.10;8.18;;;28.00;99.90;;;;;;5076225;28;20036;-76
2022/05/13 09:10:19;;;;;;;11.65;7.10;;;27.90;99.90;;;;;;5075129;28;20048;-77
2022/05/13 09:12:54;;;;;;;12.35;7.20;;;27.80;99.90;;;;;;5074882;28;20044;-76
2022/05/13 09:15:25;;;;;;;12.02;6.85;;;27.90;99.90;;;;;;5057377;28;20052;-77
2022/05/13 09:18:05;;;;;;;9.82;7.05;;;27.80;99.90;;;;;;5075007;28;20044;-76
2022/05/13 09:20:39;;;;;;;19.63;8.38;;;27.90;99.90;;;;;;5075092;28;20072;-75
2022/05/13 09:23:11;;;;;;;13.88;7.90;;;28.00;99.90;;;;;;5074251;28;20434;-76
2022/05/13 09:25:54;;;;;;;12.07;7.15;;;28.20;99.90;;;;;;5074945;28;20396;-76
2022/05/13 09:28:22;;;;;;;13.93;8.05;;;28.30;99.90;;;;;;5074971;28;20040;-76
2022/05/13 09:30:55;;;;;;;11.82;8.45;;;28.40;99.90;;;;;;5075031;28;20053;-75
2022/05/13 09:33:24;;;;;;;11.20;6.20;;;28.30;99.90;;;;;;5074960;28;20056;-76
2022/05/13 09:35:55;;;;;;;13.02;10.35;;;28.20;99.90;;;;;;5075072;28;20049;-76
2022/05/13 09:38:26;;;;;;;14.80;10.50;;;28.20;99.90;;;;;;5074619;28;20124;-76
2022/05/13 09:41:00;;;;;;;14.90;8.70;;;28.20;99.90;;;;;;5075066;28;20059;-75
2022/05/13 09:43:36;;;;;;;11.93;8.15;;;28.30;99.90;;;;;;5061964;28;20075;-76
2022/05/13 09:46:06;;;;;;;16.42;7.78;;;28.40;99.90;;;;;;5076213;28;20050;-75
2022/05/13 09:48:36;;;;;;;10.35;6.78;;;28.50;99.90;;;;;;5075133;28;20063;-76
2022/05/13 09:51:23;;;;;;;7.72;6.38;;;28.40;99.90;;;;;;5074828;28;20119;-76
2022/05/13 09:54:08;;;;;;;16.30;8.13;;;28.10;99.90;;;;;;5074414;28;20044;-77
2022/05/13 09:56:39;;;;;;;15.40;7.68;;;28.10;99.90;;;;;;5056320;28;20052;-75
2022/05/13 09:59:15;;;;;;;12.35;8.02;;;28.20;99.90;;;;;;5074495;28;20400;-76
2022/05/13 10:01:43;;;;;;;15.00;8.70;;;28.40;99.90;;;;;;5074044;28;20123;-76
2022/05/13 10:04:12;;;;;;;12.68;8.70;;;28.50;99.90;;;;;;5073614;28;20392;-76
2022/05/13 10:06:41;;;;;;;10.38;7.00;;;28.60;99.90;;;;;;5074222;28;20060;-76
2022/05/13 10:15:16;;;;;;;12.45;7.15;;;28.60;99.90;;;;;;5074074;28;20123;-76
2022/05/13 10:17:49;;;;;;;12.80;6.93;;;28.70;99.90;;;;;;5074905;28;20036;-76
2022/05/13 10:20:27;;;;;;;13.50;8.75;;;28.60;99.90;;;;;;5075350;28;20051;-75
2022/05/13 10:23:01;;;;;;;12.73;7.68;;;28.50;99.90;;;;;;5059300;28;20059;-75
2022/05/13 10:25:34;;;;;;;12.73;7.53;;;28.40;99.90;;;;;;5074345;28;20041;-76
2022/05/13 10:28:07;;;;;;;11.05;6.90;;;28.50;99.90;;;;;;5074036;28;20041;-76
2022/05/13 10:30:40;;;;;;;12.30;6.82;;;28.60;99.90;;;;;;5074446;28;20392;-76
2022/05/13 10:33:13;;;;;;;10.00;7.00;;;28.70;99.90;;;;;;5074551;28;20095;-75
2022/05/13 10:35:50;;;;;;;11.23;8.20;;;28.80;99.90;;;;;;5079300;28;20075;-76
2022/05/13 10:38:23;;;;;;;11.07;7.53;;;28.80;99.90;;;;;;5079532;28;20067;-76
2022/05/13 10:40:53;;;;;;;10.88;6.35;;;28.70;99.90;;;;;;5079976;28;20044;-77
2022/05/13 10:43:24;;;;;;;9.80;6.60;;;28.80;99.90;;;;;;5079185;28;20041;-79
2022/05/13 10:45:53;;;;;;;12.45;7.28;;;28.80;99.90;;;;;;5082676;28;20067;-79
2022/05/13 10:48:28;;;;;;;11.82;8.73;;;28.90;99.90;;;;;;5082975;28;20048;-79
2022/05/13 10:51:10;;;;;;;8.43;6.50;;;28.90;99.90;;;;;;5081319;28;20082;-79
2022/05/13 10:54:09;;;;;;;9.48;6.82;;;29.00;99.90;;;;;;5079085;28;20411;-79
2022/05/13 10:56:43;;;;;;;9.70;6.78;;;29.20;99.90;;;;;;5076821;28;20046;-76
2022/05/13 10:59:21;;;;;;;17.40;9.57;;;29.20;99.90;;;;;;5074464;28;20067;-76
2022/05/13 11:01:57;;;;;;;14.18;7.18;;;29.20;99.90;;;;;;5056099;28;20131;-76
2022/05/13 11:04:27;;;;;;;;;;;29.10;99.90;;;;;;5074887;28;20071;-76
2022/05/13 11:07:08;;;;;;;8.35;6.53;;;29.00;99.90;;;;;;5075701;28;19921;-77
2022/05/13 11:09:45;;;;;;;10.85;5.95;;;28.80;99.90;;;;;;5072973;28;20048;-76
2022/05/13 11:12:20;;;;;;;9.60;6.65;;;28.80;99.90;;;;;;5073902;28;20086;-77
2022/05/13 11:15:01;;;;;;;11.35;7.78;;;28.70;99.90;;;;;;5073914;28;20040;-77
2022/05/13 11:17:37;;;;;;;14.02;7.18;;;28.70;99.90;;;;;;5077588;28;20449;-77
2022/05/13 11:20:14;;;;;;;13.60;9.60;;;28.70;99.90;;;;;;5077732;28;20055;-76
2022/05/13 11:22:47;;;;;;;10.25;7.07;;;28.90;99.90;;;;;;5077363;28;20099;-77
2022/05/13 11:29:10;;;;;;;14.90;7.90;;;29.00;99.90;;;;;;5077262;28;20128;-77
2022/05/13 11:32:06;;;;;;;9.82;6.88;;;28.80;99.90;;;;;;5015297;28;20153;-77
2022/05/13 11:35:15;;;;;;;10.80;7.53;;;28.70;99.90;;;;;;5014732;28;20068;-76
2022/05/13 11:37:46;;;;;;;11.45;6.20;;;28.60;99.90;;;;;;4994435;28;20048;-75
2022/05/13 11:40:23;;;;;;;12.40;6.15;;;28.80;99.90;;;;;;5015689;28;20054;-77
2022/05/13 11:43:21;;;;;;;15.20;7.47;;;28.70;99.90;;;;;;5015363;28;20445;-77
2022/05/13 11:46:08;;;;;;;9.45;6.93;;;28.50;99.90;;;;;;5015229;28;20441;-77
2022/05/13 11:48:38;;;;;;;10.18;6.63;;;28.70;99.90;;;;;;5015330;28;20073;-77
2022/05/13 11:51:10;;;;;;;9.00;6.20;;;28.80;99.90;;;;;;5015121;28;20654;-76
2022/05/13 11:53:49;;;;;;;10.75;6.55;;;28.80;99.90;;;;;;4998068;28;20511;-77
2022/05/13 11:56:35;;;;;;;10.30;7.30;;;28.90;99.90;;;;;;5015132;28;20133;-76
2022/05/13 11:59:04;;;;;;;14.27;9.15;;;29.00;99.90;;;;;;5014836;28;20058;-78
2022/05/13 12:02:08;;;;;;;11.93;6.82;;;29.10;99.90;;;;;;5014645;28;20053;-77
2022/05/13 12:04:38;;;;;;;15.43;10.05;;;29.10;99.90;;;;;;5014629;28;20057;-76
2022/05/13 12:07:28;;;;;;;15.30;6.60;;;29.20;99.90;;;;;;5075102;28;20503;-76
2022/05/13 12:09:59;;;;;;;9.60;6.10;;;29.40;99.90;;;;;;5076496;28;20071;-76
2022/05/13 12:12:51;;;;;;;10.05;7.03;;;29.30;99.90;;;;;;5076152;28;20385;-77
2022/05/13 12:15:47;;;;;;;10.57;6.90;;;29.20;99.90;;;;;;5076291;28;20036;-77
2022/05/13 12:18:29;;;;;;;14.20;7.10;;;29.20;99.90;;;;;;5058436;28;20397;-78
2022/05/13 12:21:04;;;;;;;11.00;7.18;;;29.40;99.90;;;;;;5074449;28;20044;-76
2022/05/13 12:23:39;;;;;;;11.48;7.47;;;29.40;99.90;;;;;;5054653;28;20086;-76
2022/05/13 12:26:08;;;;;;;10.17;7.20;;;29.50;99.90;;;;;;5038804;28;20096;-76
2022/05/13 12:28:57;;;;;;;10.38;6.60;;;29.60;99.90;;;;;;5055769;28;20048;-77
2022/05/13 12:32:02;;;;;;;9.57;5.93;;;29.60;99.90;;;;;;5065641;28;20049;-80
2022/05/13 12:37:35;;;;;;;10.35;7.07;;;29.50;99.90;;;;;;5068269;28;20047;-80
2022/05/13 12:40:18;;;;;;;15.00;6.97;;;29.40;99.90;;;;;;5065339;28;20060;-78
2022/05/13 12:42:56;;;;;;;8.73;6.00;;;29.50;99.90;;;;;;5048906;28;20045;-79
2022/05/13 12:45:45;;;;;;;11.65;6.75;;;29.50;99.90;;;;;;5068790;28;20109;-79
2022/05/13 12:48:19;;;;;;;13.18;7.07;;;29.60;99.90;;;;;;5065773;28;20389;-78
2022/05/13 12:50:51;;;;;;;9.55;6.90;;;29.80;99.90;;;;;;5057092;28;20135;-77
2022/05/13 12:53:42;;;;;;;13.52;7.13;;;29.90;99.90;;;;;;5038511;28;20049;-77
2022/05/13 12:56:17;;;;;;;10.68;7.50;;;30.00;99.90;;;;;;5053655;28;20459;-78
2022/05/13 12:58:49;;;;;;;9.40;5.90;;;30.00;99.90;;;;;;5057417;28;20041;-78
2022/05/13 13:01:18;;;;;;;11.20;5.90;;;29.90;99.90;;;;;;5057164;28;20496;-78
2022/05/13 13:03:50;;;;;;;12.07;6.05;;;29.80;99.90;;;;;;5037437;28;20049;-78
2022/05/13 13:06:23;;;;;;;9.55;6.07;;;29.80;99.90;;;;;;5036757;28;20462;-78
2022/05/13 13:08:52;;;;;;;13.98;7.18;;;29.80;99.90;;;;;;5040245;28;20029;-78
2022/05/13 13:11:27;;;;;;;11.43;7.45;;;29.70;99.90;;;;;;5055846;28;20033;-78
2022/05/13 13:14:01;;;;;;;9.38;6.97;;;29.80;99.90;;;;;;5055458;28;20061;-77
2022/05/13 13:16:36;;;;;;;10.55;6.75;;;29.90;99.90;;;;;;5038191;28;20125;-78
2022/05/13 13:19:10;;;;;;;15.88;6.95;;;29.80;99.90;;;;;;5037840;28;20053;-78
2022/05/13 13:21:39;;;;;;;9.63;6.70;;;29.60;99.90;;;;;;5040263;28;20072;-77
2022/05/13 13:24:16;;;;;;;8.18;6.50;;;29.50;99.90;;;;;;5038332;28;20056;-79
2022/05/13 13:26:48;;;;;;;10.30;6.78;;;29.40;99.90;;;;;;5049934;28;20400;-77
2022/05/13 13:29:19;;;;;;;12.20;6.72;;;29.40;99.90;;;;;;5058832;28;20064;-78
2022/05/13 13:31:51;;;;;;;9.20;6.95;;;29.20;99.90;;;;;;5056492;28;20049;-78